SWA2619 KBOS-KJFK
Flight info
| Callsign | SWA2619 |
|---|---|
| Flight time | 0h 42m |
| Altitude | 22000 |
| Route | SSOXS7 SSOXS BUZRD SEY PARCH3 |
| Aircraft | B736/M-SDE2E3FGHIRWXY/LB1 |
Departure
| Time | 2026-05-09 15:07 |
|---|---|
| Airport | Boston Logan International Airport (KBOS) |
Arrival
| Time | 2026-05-09 15:49 |
|---|---|
| Airport | John F. Kennedy International Airport (KJFK) |
| Time | Latitude | Longitude | Altitude | Speed | Heading |
|---|---|---|---|---|---|
| 2026-05-09 14:49 | 42.36166 | -71.01625 | 28 ft | 0 kts | 290° |
| 2026-05-09 15:00 | 42.36164 | -71.01619 | 28 ft | 0 kts | 290° |
| 2026-05-09 15:00 | 42.36164 | -71.01618 | 28 ft | 0 kts | 290° |
| 2026-05-09 15:00 | 42.36159 | -71.01599 | 30 ft | 3 kts | 290° |
| 2026-05-09 15:01 | 42.36147 | -71.01553 | 41 ft | 3 kts | 300° |
| 2026-05-09 15:01 | 42.36134 | -71.01542 | 41 ft | 1 kts | 16° |
| 2026-05-09 15:01 | 42.36133 | -71.01542 | 41 ft | 0 kts | 16° |
| 2026-05-09 15:03 | 42.36198 | -71.01474 | 26 ft | 21 kts | 17° |
| 2026-05-09 15:03 | 42.36339 | -71.01430 | 24 ft | 21 kts | 18° |
| 2026-05-09 15:03 | 42.36472 | -71.01362 | 26 ft | 20 kts | 22° |
| 2026-05-09 15:03 | 42.36599 | -71.01287 | 26 ft | 20 kts | 19° |
| 2026-05-09 15:04 | 42.36728 | -71.01242 | 26 ft | 19 kts | 3° |
| 2026-05-09 15:04 | 42.36845 | -71.01268 | 26 ft | 18 kts | 36° |
| 2026-05-09 15:06 | 42.37764 | -71.00683 | 26 ft | 25 kts | 19° |
| 2026-05-09 15:06 | 42.37821 | -71.00531 | 24 ft | 22 kts | 111° |
| 2026-05-09 15:06 | 42.37668 | -71.00535 | 24 ft | 50 kts | 200° |
| 2026-05-09 15:06 | 42.36970 | -71.00874 | 32 ft | 160 kts | 200° |
| 2026-05-09 15:07 | 42.35800 | -71.01456 | 948 ft | 196 kts | 197° |
| 2026-05-09 15:07 | 42.34360 | -71.01809 | 2169 ft | 211 kts | 168° |
| 2026-05-09 15:07 | 42.33015 | -71.00830 | 3482 ft | 238 kts | 139° |
| 2026-05-09 15:07 | 42.31901 | -70.99024 | 4276 ft | 259 kts | 133° |
| 2026-05-09 15:08 | 42.31093 | -70.96749 | 4872 ft | 284 kts | 103° |
| 2026-05-09 15:08 | 42.31194 | -70.91251 | 6444 ft | 305 kts | 79° |
| 2026-05-09 15:08 | 42.31759 | -70.88450 | 7243 ft | 312 kts | 77° |
| 2026-05-09 15:09 | 42.32334 | -70.85595 | 8088 ft | 318 kts | 77° |
| 2026-05-09 15:10 | 42.26031 | -70.66744 | 12397 ft | 367 kts | 168° |
| 2026-05-09 15:11 | 42.23528 | -70.66302 | 13127 ft | 362 kts | 189° |
| 2026-05-09 15:11 | 42.21095 | -70.67055 | 13889 ft | 359 kts | 207° |
| 2026-05-09 15:11 | 42.18959 | -70.68752 | 14659 ft | 356 kts | 223° |
| 2026-05-09 15:11 | 42.17278 | -70.71173 | 15489 ft | 354 kts | 233° |
| 2026-05-09 15:12 | 42.15748 | -70.73788 | 16298 ft | 357 kts | 235° |
| 2026-05-09 15:12 | 42.14236 | -70.76460 | 17125 ft | 359 kts | 236° |
| 2026-05-09 15:12 | 42.12717 | -70.79158 | 17934 ft | 363 kts | 236° |
| 2026-05-09 15:12 | 42.11177 | -70.81881 | 18663 ft | 366 kts | 236° |
| 2026-05-09 15:13 | 42.09642 | -70.84575 | 19403 ft | 367 kts | 236° |
| 2026-05-09 15:13 | 42.08077 | -70.87305 | 20171 ft | 368 kts | 236° |
| 2026-05-09 15:13 | 42.06498 | -70.90046 | 20878 ft | 371 kts | 236° |
| 2026-05-09 15:13 | 42.04907 | -70.92798 | 21521 ft | 374 kts | 236° |
| 2026-05-09 15:14 | 42.03298 | -70.95575 | 22011 ft | 377 kts | 236° |
| 2026-05-09 15:14 | 42.01667 | -70.98387 | 22010 ft | 384 kts | 236° |
| 2026-05-09 15:14 | 42.00011 | -71.01236 | 22023 ft | 388 kts | 235° |
| 2026-05-09 15:14 | 41.98348 | -71.04092 | 22021 ft | 386 kts | 235° |
| 2026-05-09 15:15 | 41.96690 | -71.06935 | 22027 ft | 386 kts | 235° |
| 2026-05-09 15:15 | 41.95594 | -71.08812 | 22032 ft | 386 kts | 235° |
| 2026-05-09 15:15 | 41.93378 | -71.12607 | 22032 ft | 386 kts | 235° |
| 2026-05-09 15:15 | 41.91720 | -71.15445 | 22029 ft | 386 kts | 235° |
| 2026-05-09 15:16 | 41.90062 | -71.18279 | 22023 ft | 386 kts | 235° |
| 2026-05-09 15:16 | 41.88398 | -71.21121 | 22030 ft | 386 kts | 235° |
| 2026-05-09 15:16 | 41.86739 | -71.23953 | 21998 ft | 386 kts | 235° |
| 2026-05-09 15:16 | 41.85079 | -71.26783 | 22022 ft | 385 kts | 235° |
| 2026-05-09 15:17 | 41.83439 | -71.29577 | 22022 ft | 385 kts | 235° |
| 2026-05-09 15:17 | 41.81782 | -71.32397 | 22026 ft | 385 kts | 235° |
| 2026-05-09 15:17 | 41.80122 | -71.35220 | 22025 ft | 385 kts | 235° |
| 2026-05-09 15:17 | 41.78465 | -71.38036 | 22027 ft | 385 kts | 235° |
| 2026-05-09 15:18 | 41.76806 | -71.40852 | 22026 ft | 385 kts | 235° |
| 2026-05-09 15:18 | 41.75141 | -71.43676 | 22029 ft | 385 kts | 235° |
| 2026-05-09 15:18 | 41.73477 | -71.46495 | 22028 ft | 385 kts | 235° |
| 2026-05-09 15:18 | 41.71815 | -71.49307 | 22031 ft | 385 kts | 235° |
| 2026-05-09 15:19 | 41.70150 | -71.52123 | 22020 ft | 385 kts | 235° |
| 2026-05-09 15:19 | 41.68487 | -71.54934 | 22020 ft | 386 kts | 235° |
| 2026-05-09 15:19 | 41.66817 | -71.57752 | 22035 ft | 386 kts | 234° |
| 2026-05-09 15:19 | 41.65149 | -71.60565 | 22026 ft | 386 kts | 234° |
| 2026-05-09 15:20 | 41.64041 | -71.62432 | 22012 ft | 386 kts | 234° |
| 2026-05-09 15:20 | 41.60153 | -71.68974 | 22014 ft | 386 kts | 234° |
| 2026-05-09 15:20 | 41.59025 | -71.70870 | 22017 ft | 386 kts | 234° |
| 2026-05-09 15:21 | 41.56811 | -71.74587 | 22015 ft | 386 kts | 234° |
| 2026-05-09 15:21 | 41.55140 | -71.77389 | 21996 ft | 386 kts | 235° |
| 2026-05-09 15:21 | 41.54011 | -71.79282 | 22011 ft | 386 kts | 235° |
| 2026-05-09 15:21 | 41.52335 | -71.82088 | 22020 ft | 387 kts | 235° |
| 2026-05-09 15:22 | 41.50656 | -71.84897 | 22022 ft | 388 kts | 234° |
| 2026-05-09 15:22 | 41.48996 | -71.87673 | 22020 ft | 388 kts | 234° |
| 2026-05-09 15:22 | 41.47309 | -71.90490 | 22026 ft | 388 kts | 234° |
| 2026-05-09 15:22 | 41.45624 | -71.93300 | 22037 ft | 388 kts | 234° |
| 2026-05-09 15:23 | 41.43938 | -71.96110 | 22005 ft | 388 kts | 234° |
| 2026-05-09 15:23 | 41.42253 | -71.98915 | 22015 ft | 387 kts | 234° |
| 2026-05-09 15:23 | 41.40570 | -72.01716 | 22006 ft | 387 kts | 234° |
| 2026-05-09 15:23 | 41.38890 | -72.04508 | 22015 ft | 386 kts | 234° |
| 2026-05-09 15:24 | 41.37209 | -72.07300 | 22003 ft | 386 kts | 234° |
| 2026-05-09 15:24 | 41.35535 | -72.10076 | 21999 ft | 380 kts | 234° |
| 2026-05-09 15:24 | 41.33889 | -72.12800 | 22006 ft | 375 kts | 234° |
| 2026-05-09 15:24 | 41.32260 | -72.15498 | 22015 ft | 375 kts | 234° |
| 2026-05-09 15:25 | 41.30624 | -72.18208 | 22014 ft | 376 kts | 234° |
| 2026-05-09 15:25 | 41.28983 | -72.20921 | 21992 ft | 376 kts | 234° |
| 2026-05-09 15:25 | 41.27345 | -72.23629 | 22007 ft | 376 kts | 234° |
| 2026-05-09 15:26 | 41.24071 | -72.29027 | 21545 ft | 372 kts | 234° |
| 2026-05-09 15:26 | 41.22443 | -72.31710 | 21264 ft | 372 kts | 234° |
| 2026-05-09 15:26 | 41.20816 | -72.34388 | 21005 ft | 372 kts | 234° |
| 2026-05-09 15:26 | 41.19196 | -72.37054 | 20756 ft | 371 kts | 234° |
| 2026-05-09 15:27 | 41.17577 | -72.39713 | 20502 ft | 370 kts | 234° |
| 2026-05-09 15:27 | 41.15959 | -72.42369 | 19926 ft | 369 kts | 234° |
| 2026-05-09 15:27 | 41.14358 | -72.44994 | 19236 ft | 363 kts | 234° |
| 2026-05-09 15:27 | 41.12779 | -72.47581 | 18513 ft | 358 kts | 234° |
| 2026-05-09 15:28 | 41.11234 | -72.50110 | 17738 ft | 354 kts | 233° |
| 2026-05-09 15:28 | 41.09692 | -72.52633 | 16966 ft | 350 kts | 233° |
| 2026-05-09 15:28 | 41.08170 | -72.55122 | 16283 ft | 345 kts | 233° |
| 2026-05-09 15:28 | 41.06670 | -72.57573 | 15573 ft | 341 kts | 232° |
| 2026-05-09 15:29 | 41.05180 | -72.60006 | 14907 ft | 337 kts | 232° |
| 2026-05-09 15:29 | 41.03708 | -72.62407 | 14262 ft | 334 kts | 231° |
| 2026-05-09 15:29 | 41.02251 | -72.64784 | 13585 ft | 331 kts | 231° |
| 2026-05-09 15:29 | 41.00803 | -72.67143 | 12856 ft | 329 kts | 231° |
| 2026-05-09 15:30 | 40.99390 | -72.69443 | 12672 ft | 312 kts | 231° |
| 2026-05-09 15:30 | 40.98053 | -72.71618 | 12509 ft | 297 kts | 230° |
| 2026-05-09 15:30 | 40.96780 | -72.73688 | 12380 ft | 282 kts | 230° |
| 2026-05-09 15:30 | 40.95571 | -72.75651 | 12260 ft | 269 kts | 230° |
| 2026-05-09 15:31 | 40.94404 | -72.77544 | 12124 ft | 263 kts | 230° |
| 2026-05-09 15:31 | 40.93245 | -72.79414 | 12059 ft | 264 kts | 229° |
| 2026-05-09 15:31 | 40.91933 | -72.81023 | 12034 ft | 259 kts | 219° |
| 2026-05-09 15:31 | 40.90503 | -72.82407 | 12021 ft | 248 kts | 217° |
| 2026-05-09 15:32 | 40.89113 | -72.83700 | 11647 ft | 248 kts | 216° |
| 2026-05-09 15:32 | 40.87690 | -72.85026 | 11340 ft | 252 kts | 216° |
| 2026-05-09 15:32 | 40.86257 | -72.86372 | 11111 ft | 253 kts | 216° |
| 2026-05-09 15:32 | 40.84824 | -72.87727 | 10858 ft | 254 kts | 216° |
| 2026-05-09 15:33 | 40.83412 | -72.89067 | 10502 ft | 244 kts | 216° |
| 2026-05-09 15:33 | 40.82049 | -72.90366 | 10215 ft | 241 kts | 216° |
| 2026-05-09 15:33 | 40.80693 | -72.91660 | 9928 ft | 239 kts | 216° |
| 2026-05-09 15:33 | 40.79354 | -72.92939 | 9607 ft | 236 kts | 216° |
| 2026-05-09 15:34 | 40.78046 | -72.94188 | 9279 ft | 234 kts | 216° |
| 2026-05-09 15:34 | 40.76736 | -72.95441 | 8973 ft | 232 kts | 216° |
| 2026-05-09 15:34 | 40.75418 | -72.96700 | 8658 ft | 230 kts | 216° |
| 2026-05-09 15:34 | 40.74128 | -72.97933 | 8350 ft | 228 kts | 216° |
| 2026-05-09 15:35 | 40.72861 | -72.99143 | 8040 ft | 227 kts | 216° |
| 2026-05-09 15:35 | 40.71581 | -73.00364 | 7716 ft | 227 kts | 216° |
| 2026-05-09 15:35 | 40.70289 | -73.01595 | 7425 ft | 231 kts | 216° |
| 2026-05-09 15:35 | 40.69087 | -73.03026 | 7124 ft | 235 kts | 228° |
| 2026-05-09 15:36 | 40.68394 | -73.04971 | 6814 ft | 243 kts | 257° |
| 2026-05-09 15:36 | 40.68502 | -73.07249 | 6548 ft | 257 kts | 275° |
| 2026-05-09 15:36 | 40.68875 | -73.09579 | 6292 ft | 260 kts | 276° |
| 2026-05-09 15:36 | 40.69274 | -73.11889 | 6049 ft | 257 kts | 277° |
| 2026-05-09 15:37 | 40.69676 | -73.14173 | 5816 ft | 254 kts | 277° |
| 2026-05-09 15:37 | 40.70076 | -73.16436 | 5600 ft | 253 kts | 277° |
| 2026-05-09 15:37 | 40.70475 | -73.18690 | 5356 ft | 252 kts | 277° |
| 2026-05-09 15:37 | 40.70872 | -73.20926 | 5134 ft | 250 kts | 277° |
| 2026-05-09 15:38 | 40.71275 | -73.23160 | 5052 ft | 250 kts | 277° |
| 2026-05-09 15:38 | 40.71679 | -73.25389 | 5016 ft | 250 kts | 277° |
| 2026-05-09 15:38 | 40.72099 | -73.27614 | 5010 ft | 252 kts | 282° |
| 2026-05-09 15:38 | 40.73040 | -73.29585 | 5006 ft | 267 kts | 309° |
| 2026-05-09 15:39 | 40.74501 | -73.31147 | 5018 ft | 273 kts | 316° |
| 2026-05-09 15:39 | 40.76035 | -73.32630 | 5004 ft | 273 kts | 317° |
| 2026-05-09 15:39 | 40.77580 | -73.34104 | 5022 ft | 273 kts | 317° |
| 2026-05-09 15:39 | 40.79126 | -73.35582 | 4838 ft | 275 kts | 317° |
| 2026-05-09 15:40 | 40.80667 | -73.37054 | 4592 ft | 272 kts | 317° |
| 2026-05-09 15:40 | 40.82180 | -73.38501 | 4325 ft | 263 kts | 317° |
| 2026-05-09 15:40 | 40.83628 | -73.39870 | 4045 ft | 250 kts | 317° |
| 2026-05-09 15:40 | 40.85015 | -73.41170 | 3787 ft | 240 kts | 317° |
| 2026-05-09 15:41 | 40.86134 | -73.42661 | 3507 ft | 218 kts | 290° |
| 2026-05-09 15:41 | 40.86414 | -73.44488 | 3255 ft | 195 kts | 257° |
| 2026-05-09 15:41 | 40.86046 | -73.46184 | 3089 ft | 190 kts | 248° |
| 2026-05-09 15:41 | 40.85587 | -73.47837 | 3033 ft | 191 kts | 247° |
| 2026-05-09 15:42 | 40.85119 | -73.49475 | 2980 ft | 191 kts | 247° |
| 2026-05-09 15:42 | 40.84643 | -73.51102 | 2990 ft | 190 kts | 247° |
| 2026-05-09 15:42 | 40.84165 | -73.52730 | 2982 ft | 189 kts | 247° |
| 2026-05-09 15:42 | 40.83689 | -73.54346 | 2977 ft | 189 kts | 247° |
| 2026-05-09 15:43 | 40.83207 | -73.55976 | 3000 ft | 191 kts | 247° |
| 2026-05-09 15:43 | 40.82728 | -73.57617 | 3014 ft | 198 kts | 247° |
| 2026-05-09 15:43 | 40.82235 | -73.59321 | 3004 ft | 198 kts | 247° |
| 2026-05-09 15:43 | 40.81744 | -73.61002 | 2854 ft | 195 kts | 246° |
| 2026-05-09 15:44 | 40.80867 | -73.62265 | 2675 ft | 193 kts | 208° |
| 2026-05-09 15:44 | 40.79757 | -73.63181 | 2491 ft | 187 kts | 226° |
| 2026-05-09 15:44 | 40.78806 | -73.64312 | 2328 ft | 187 kts | 207° |
| 2026-05-09 15:44 | 40.77554 | -73.64710 | 2197 ft | 182 kts | 199° |
| 2026-05-09 15:45 | 40.76575 | -73.65622 | 2064 ft | 175 kts | 233° |
| 2026-05-09 15:45 | 40.75730 | -73.66814 | 2006 ft | 181 kts | 211° |
| 2026-05-09 15:45 | 40.74585 | -73.67443 | 2000 ft | 176 kts | 212° |
| 2026-05-09 15:45 | 40.73633 | -73.68417 | 1962 ft | 174 kts | 223° |
| 2026-05-09 15:46 | 40.72648 | -73.69316 | 1975 ft | 172 kts | 211° |
| 2026-05-09 15:46 | 40.71591 | -73.70006 | 1881 ft | 167 kts | 207° |
| 2026-05-09 15:46 | 40.70561 | -73.70677 | 1709 ft | 161 kts | 211° |
| 2026-05-09 15:46 | 40.69638 | -73.71417 | 1517 ft | 147 kts | 215° |
| 2026-05-09 15:47 | 40.68811 | -73.72097 | 1230 ft | 133 kts | 213° |
| 2026-05-09 15:47 | 40.68078 | -73.72716 | 965 ft | 117 kts | 214° |
| 2026-05-09 15:47 | 40.67401 | -73.73274 | 769 ft | 119 kts | 214° |
| 2026-05-09 15:47 | 40.66698 | -73.73818 | 683 ft | 118 kts | 209° |
| 2026-05-09 15:48 | 40.65985 | -73.74362 | 536 ft | 121 kts | 211° |
| 2026-05-09 15:48 | 40.65260 | -73.74926 | 314 ft | 121 kts | 209° |
| 2026-05-09 15:48 | 40.64549 | -73.75466 | 96 ft | 118 kts | 213° |
| 2026-05-09 15:48 | 40.63903 | -73.75984 | 22 ft | 96 kts | 210° |
| 2026-05-09 15:49 | 40.63450 | -73.76333 | 23 ft | 45 kts | 212° |
| 2026-05-09 15:49 | 40.63295 | -73.76500 | 20 ft | 23 kts | 241° |
| 2026-05-09 15:49 | 40.63238 | -73.76652 | 19 ft | 16 kts | 251° |
| 2026-05-09 15:49 | 40.63248 | -73.76733 | 19 ft | 0 kts | 294° |
| 2026-05-09 15:50 | 40.63281 | -73.76813 | 19 ft | 16 kts | 296° |
| 2026-05-09 15:50 | 40.63336 | -73.76934 | 19 ft | 14 kts | 302° |
| 2026-05-09 15:50 | 40.63384 | -73.77033 | 19 ft | 12 kts | 304° |
| 2026-05-09 15:50 | 40.63423 | -73.77125 | 19 ft | 11 kts | 301° |
| 2026-05-09 15:51 | 40.63463 | -73.77213 | 19 ft | 11 kts | 303° |
| 2026-05-09 15:51 | 40.63505 | -73.77303 | 20 ft | 12 kts | 299° |
| 2026-05-09 15:51 | 40.63522 | -73.77343 | 20 ft | 0 kts | 300° |
| 2026-05-09 15:51 | 40.63546 | -73.77395 | 20 ft | 16 kts | 301° |